www.cux-wetter.de
Wetterdaten: Freitag, 02.04.2010
Datum Zeit Temp. A. Feuchte A. Luftdruck Regen Wind Richtung Richtung Sonnenschein Solar Taupunkt Windchill Windben
02.04.2010 00:00 3,8 C 83 % 1010,5 hPa 0,0 l/m 20,7 km/h (4 Bft) SW 230 0 min 0 W/m 1,2 C -5,0 C 20,7 km/h (4 Bft)
02.04.2010 00:04 3,7 C 83 % 1010,5 hPa 0,0 l/m 21,2 km/h (4 Bft) W-SW 240 0 min 0 W/m 1,1 C -5,3 C 21,2 km/h (4 Bft)
02.04.2010 00:09 3,7 C 83 % 1010,5 hPa 0,0 l/m 16,8 km/h (3 Bft) W-SW 240 0 min 0 W/m 1,1 C -3,4 C 16,8 km/h (3 Bft)
02.04.2010 00:14 3,8 C 83 % 1010,5 hPa 0,0 l/m 21,6 km/h (4 Bft) SW 235 0 min 0 W/m 1,2 C -5,4 C 21,6 km/h (4 Bft)
02.04.2010 00:19 3,8 C 83 % 1010,5 hPa 0,0 l/m 22,5 km/h (4 Bft) W-SW 250 0 min 0 W/m 1,2 C -5,7 C 22,5 km/h (4 Bft)
02.04.2010 00:24 3,8 C 82 % 1010,5 hPa 0,0 l/m 21,9 km/h (4 Bft) W-SW 240 0 min 0 W/m 1,0 C -5,5 C 21,9 km/h (4 Bft)
02.04.2010 00:29 3,8 C 82 % 1010,5 hPa 0,0 l/m 27,8 km/h (5 Bft) W-SW 255 0 min 0 W/m 1,0 C -7,4 C 27,8 km/h (5 Bft)
02.04.2010 00:34 3,8 C 82 % 1010,5 hPa 0,0 l/m 24,9 km/h (4 Bft) W-SW 240 0 min 0 W/m 1,0 C -6,5 C 24,9 km/h (4 Bft)
02.04.2010 00:40 3,9 C 82 % 1010,5 hPa 0,0 l/m 25,0 km/h (4 Bft) W-SW 250 0 min 0 W/m 1,1 C -6,4 C 25,0 km/h (4 Bft)
02.04.2010 00:45 3,9 C 82 % 1010,5 hPa 0,0 l/m 24,1 km/h (4 Bft) W-SW 245 0 min 0 W/m 1,1 C -6,1 C 24,1 km/h (4 Bft)
02.04.2010 00:49 3,9 C 82 % 1010,5 hPa 0,0 l/m 25,6 km/h (4 Bft) W-SW 250 0 min 0 W/m 1,1 C -6,6 C 25,6 km/h (4 Bft)
02.04.2010 00:54 3,9 C 81 % 1010,5 hPa 0,0 l/m 23,8 km/h (4 Bft) W-SW 245 0 min 0 W/m 0,9 C -6,0 C 23,8 km/h (4 Bft)
02.04.2010 00:59 3,9 C 81 % 1010,5 hPa 0,0 l/m 24,6 km/h (4 Bft) W-SW 245 0 min 0 W/m 0,9 C -6,3 C 24,6 km/h (4 Bft)
02.04.2010 01:04 3,8 C 81 % 1010,5 hPa 0,0 l/m 22,6 km/h (4 Bft) W-SW 240 0 min 0 W/m 0,8 C -5,7 C 22,6 km/h (4 Bft)
02.04.2010 01:09 3,8 C 81 % 1010,5 hPa 0,0 l/m 19,0 km/h (3 Bft) W-SW 240 0 min 0 W/m 0,8 C -4,3 C 19,0 km/h (3 Bft)
02.04.2010 01:14 3,8 C 81 % 1010,5 hPa 0,0 l/m 19,4 km/h (3 Bft) SW 235 0 min 0 W/m 0,8 C -4,5 C 19,4 km/h (3 Bft)
02.04.2010 01:19 3,8 C 81 % 1010,5 hPa 0,0 l/m 20,3 km/h (4 Bft) SW 235 0 min 0 W/m 0,8 C -4,8 C 20,3 km/h (4 Bft)
02.04.2010 01:25 3,8 C 81 % 1010,5 hPa 0,0 l/m 20,3 km/h (4 Bft) W-SW 240 0 min 0 W/m 0,8 C -4,8 C 20,3 km/h (4 Bft)
02.04.2010 01:30 3,8 C 81 % 1010,5 hPa 0,0 l/m 15,5 km/h (3 Bft) SW 235 0 min 0 W/m 0,8 C -2,6 C 15,5 km/h (3 Bft)
02.04.2010 01:35 3,7 C 81 % 1010,5 hPa 0,0 l/m 15,5 km/h (3 Bft) SW 235 0 min 0 W/m 0,7 C -2,8 C 15,5 km/h (3 Bft)
02.04.2010 01:39 3,8 C 82 % 1010,5 hPa 0,0 l/m 18,4 km/h (3 Bft) W-SW 245 0 min 0 W/m 1,0 C -4,0 C 18,4 km/h (3 Bft)
02.04.2010 01:44 3,8 C 82 % 1010,5 hPa 0,0 l/m 16,6 km/h (3 Bft) SW 230 0 min 0 W/m 1,0 C -3,2 C 16,6 km/h (3 Bft)
02.04.2010 01:49 3,8 C 82 % 1010,5 hPa 0,0 l/m 12,8 km/h (3 Bft) SW 235 0 min 0 W/m 1,0 C -1,1 C 12,8 km/h (3 Bft)
02.04.2010 01:54 3,8 C 82 % 1010,5 hPa 0,0 l/m 14,5 km/h (3 Bft) SW 235 0 min 0 W/m 1,0 C -2,1 C 14,5 km/h (3 Bft)
02.04.2010 01:59 3,7 C 81 % 1010,5 hPa 0,0 l/m 15,6 km/h (3 Bft) W-SW 245 0 min 0 W/m 0,7 C -2,8 C 15,6 km/h (3 Bft)
02.04.2010 02:04 3,8 C 82 % 1011,5 hPa 0,0 l/m 21,8 km/h (4 Bft) W-SW 245 0 min 0 W/m 1,0 C -5,4 C 21,8 km/h (4 Bft)
02.04.2010 02:10 3,9 C 81 % 1011,5 hPa 0,0 l/m 28,8 km/h (5 Bft) W-SW 250 0 min 0 W/m 0,9 C -7,6 C 28,8 km/h (5 Bft)
02.04.2010 02:15 4,1 C 81 % 1011,5 hPa 0,0 l/m 23,0 km/h (4 Bft) W-SW 250 0 min 0 W/m 1,1 C -5,5 C 23,0 km/h (4 Bft)
02.04.2010 02:20 4,3 C 81 % 1011,5 hPa 0,0 l/m 29,2 km/h (5 Bft) W-SW 255 0 min 0 W/m 1,3 C -7,1 C 29,2 km/h (5 Bft)
02.04.2010 02:24 4,3 C 81 % 1011,5 hPa 0,0 l/m 32,1 km/h (5 Bft) W-SW 255 0 min 0 W/m 1,3 C -7,9 C 32,1 km/h (5 Bft)
02.04.2010 02:29 4,4 C 81 % 1011,5 hPa 0,0 l/m 30,4 km/h (5 Bft) W-SW 250 0 min 0 W/m 1,4 C -7,3 C 30,4 km/h (5 Bft)
02.04.2010 02:34 4,5 C 81 % 1011,5 hPa 0,0 l/m 26,2 km/h (4 Bft) W-SW 255 0 min 0 W/m 1,5 C -6,0 C 26,2 km/h (4 Bft)
02.04.2010 02:39 4,6 C 81 % 1011,5 hPa 0,0 l/m 25,0 km/h (4 Bft) W 260 0 min 0 W/m 1,6 C -5,5 C 25,0 km/h (4 Bft)
02.04.2010 02:44 4,6 C 81 % 1011,5 hPa 0,0 l/m 25,1 km/h (4 Bft) W-SW 255 0 min 0 W/m 1,6 C -5,5 C 25,1 km/h (4 Bft)
02.04.2010 02:49 4,6 C 81 % 1011,5 hPa 0,0 l/m 29,3 km/h (5 Bft) W-SW 255 0 min 0 W/m 1,6 C -6,8 C 29,3 km/h (5 Bft)
02.04.2010 02:54 4,6 C 80 % 1011,5 hPa 0,0 l/m 21,5 km/h (4 Bft) W-SW 255 0 min 0 W/m 1,5 C -4,3 C 21,5 km/h (4 Bft)
02.04.2010 02:59 4,6 C 80 % 1011,5 hPa 0,0 l/m 25,0 km/h (4 Bft) W-SW 255 0 min 0 W/m 1,5 C -5,5 C 25,0 km/h (4 Bft)
02.04.2010 03:05 4,6 C 81 % 1011,5 hPa 0,0 l/m 19,5 km/h (3 Bft) W-SW 240 0 min 0 W/m 1,6 C -3,5 C 19,5 km/h (3 Bft)
02.04.2010 03:09 4,6 C 81 % 1011,5 hPa 0,0 l/m 28,2 km/h (5 Bft) W-SW 245 0 min 0 W/m 1,6 C -6,4 C 28,2 km/h (5 Bft)
02.04.2010 03:14 4,6 C 80 % 1011,5 hPa 0,0 l/m 28,8 km/h (5 Bft) W-SW 250 0 min 0 W/m 1,5 C -6,6 C 28,8 km/h (5 Bft)
02.04.2010 03:19 4,6 C 80 % 1011,5 hPa 0,0 l/m 31,0 km/h (5 Bft) W-SW 250 0 min 0 W/m 1,5 C -7,2 C 31,0 km/h (5 Bft)
02.04.2010 03:24 4,6 C 80 % 1011,5 hPa 0,0 l/m 30,6 km/h (5 Bft) W-SW 250 0 min 0 W/m 1,5 C -7,1 C 30,6 km/h (5 Bft)
02.04.2010 03:29 4,6 C 81 % 1011,5 hPa 0,0 l/m 18,5 km/h (3 Bft) W-SW 255 0 min 0 W/m 1,6 C -3,1 C 18,5 km/h (3 Bft)
02.04.2010 03:34 4,6 C 81 % 1011,5 hPa 0,0 l/m 24,4 km/h (4 Bft) W-SW 250 0 min 0 W/m 1,6 C -5,3 C 24,4 km/h (4 Bft)
02.04.2010 03:39 4,5 C 81 % 1011,5 hPa 0,0 l/m 19,4 km/h (3 Bft) W-SW 250 0 min 0 W/m 1,5 C -3,6 C 19,4 km/h (3 Bft)
02.04.2010 03:44 4,5 C 82 % 1011,5 hPa 0,0 l/m 20,6 km/h (4 Bft) W-SW 240 0 min 0 W/m 1,7 C -4,1 C 20,6 km/h (4 Bft)
02.04.2010 03:49 4,5 C 82 % 1010,5 hPa 0,0 l/m 13,1 km/h (3 Bft) W-SW 245 0 min 0 W/m 1,7 C -0,5 C 13,1 km/h (3 Bft)
02.04.2010 03:55 4,5 C 82 % 1010,5 hPa 0,0 l/m 16,3 km/h (3 Bft) W-SW 240 0 min 0 W/m 1,7 C -2,2 C 16,3 km/h (3 Bft)
02.04.2010 04:00 4,5 C 82 % 1010,5 hPa 0,0 l/m 12,2 km/h (2 Bft) SW 230 0 min 0 W/m 1,7 C 0,1 C 12,2 km/h (2 Bft)
02.04.2010 04:04 4,5 C 82 % 1010,5 hPa 0,0 l/m 11,5 km/h (2 Bft) SW 220 0 min 0 W/m 1,7 C 0,5 C 11,5 km/h (2 Bft)
02.04.2010 04:09 4,6 C 82 % 1010,5 hPa 0,0 l/m 12,0 km/h (2 Bft) SW 220 0 min 0 W/m 1,8 C 0,3 C 12,0 km/h (2 Bft)
02.04.2010 04:14 4,6 C 81 % 1010,5 hPa 0,0 l/m 14,8 km/h (3 Bft) SW 220 0 min 0 W/m 1,6 C -1,3 C 14,8 km/h (3 Bft)
02.04.2010 04:19 4,6 C 81 % 1010,5 hPa 0,0 l/m 11,5 km/h (2 Bft) S-SW 205 0 min 0 W/m 1,6 C 0,6 C 11,5 km/h (2 Bft)
02.04.2010 04:24 4,5 C 80 % 1010,5 hPa 0,0 l/m 16,1 km/h (3 Bft) S-SW 210 0 min 0 W/m 1,4 C -2,1 C 16,1 km/h (3 Bft)
02.04.2010 04:29 4,5 C 80 % 1010,5 hPa 0,0 l/m 10,3 km/h (2 Bft) S-SW 210 0 min 0 W/m 1,4 C 1,3 C 10,3 km/h (2 Bft)
02.04.2010 04:34 4,5 C 80 % 1010,5 hPa 0,0 l/m 12,5 km/h (2 Bft) SW 215 0 min 0 W/m 1,4 C -0,1 C 12,5 km/h (2 Bft)
02.04.2010 04:40 4,5 C 79 % 1010,5 hPa 0,0 l/m 13,0 km/h (3 Bft) S 185 0 min 0 W/m 1,2 C -0,4 C 13,0 km/h (3 Bft)
02.04.2010 04:45 4,5 C 79 % 1010,5 hPa 0,0 l/m 9,3 km/h (2 Bft) S 185 0 min 0 W/m 1,2 C 2,0 C 9,3 km/h (2 Bft)
02.04.2010 04:50 4,5 C 79 % 1010,5 hPa 0,0 l/m 10,7 km/h (2 Bft) S-SW 195 0 min 0 W/m 1,2 C 1,0 C 10,7 km/h (2 Bft)
02.04.2010 04:54 4,5 C 79 % 1010,5 hPa 0,0 l/m 14,1 km/h (3 Bft) S-SW 205 0 min 0 W/m 1,2 C -1,0 C 14,1 km/h (3 Bft)
02.04.2010 04:59 4,5 C 79 % 1010,5 hPa 0,0 l/m 12,6 km/h (3 Bft) S-SW 200 0 min 0 W/m 1,2 C -0,2 C 12,6 km/h (3 Bft)
02.04.2010 05:04 4,5 C 79 % 1010,5 hPa 0,0 l/m 15,3 km/h (3 Bft) S-SW 195 0 min 0 W/m 1,2 C -1,7 C 15,3 km/h (3 Bft)
02.04.2010 05:09 4,5 C 79 % 1010,5 hPa 0,0 l/m 10,8 km/h (2 Bft) S-SW 200 0 min 0 W/m 1,2 C 1,0 C 10,8 km/h (2 Bft)
02.04.2010 05:14 4,5 C 79 % 1010,5 hPa 0,0 l/m 11,1 km/h (2 Bft) S 185 0 min 0 W/m 1,2 C 0,8 C 11,1 km/h (2 Bft)
02.04.2010 05:20 4,5 C 79 % 1010,5 hPa 0,0 l/m 11,6 km/h (2 Bft) S 190 0 min 0 W/m 1,2 C 0,4 C 11,6 km/h (2 Bft)
02.04.2010 05:25 4,5 C 78 % 1011,5 hPa 0,0 l/m 15,6 km/h (3 Bft) S-SW 205 0 min 0 W/m 1,0 C -1,8 C 15,6 km/h (3 Bft)
02.04.2010 05:29 4,5 C 78 % 1011,5 hPa 0,0 l/m 18,9 km/h (3 Bft) SW 220 0 min 0 W/m 1,0 C -3,4 C 18,9 km/h (3 Bft)
02.04.2010 05:34 4,4 C 78 % 1011,5 hPa 0,0 l/m 13,9 km/h (3 Bft) SW 225 0 min 0 W/m 0,9 C -1,1 C 13,9 km/h (3 Bft)
02.04.2010 05:39 4,3 C 79 % 1011,5 hPa 0,0 l/m 14,6 km/h (3 Bft) SW 225 0 min 0 W/m 1,0 C -1,6 C 14,6 km/h (3 Bft)
02.04.2010 05:44 4,3 C 79 % 1011,5 hPa 0,0 l/m 15,4 km/h (3 Bft) SW 230 0 min 0 W/m 1,0 C -2,0 C 15,4 km/h (3 Bft)
02.04.2010 05:49 4,3 C 79 % 1011,5 hPa 0,3 l/m 14,6 km/h (3 Bft) SW 225 0 min 0 W/m 1,0 C -1,6 C 14,6 km/h (3 Bft)
02.04.2010 05:54 4,3 C 79 % 1011,5 hPa 0,0 l/m 18,8 km/h (3 Bft) SW 225 0 min 0 W/m 1,0 C -3,6 C 18,8 km/h (3 Bft)
02.04.2010 05:59 4,3 C 80 % 1011,5 hPa 0,0 l/m 15,8 km/h (3 Bft) SW 230 0 min 0 W/m 1,2 C -2,2 C 15,8 km/h (3 Bft)
02.04.2010 06:05 4,3 C 80 % 1010,5 hPa 0,0 l/m 13,3 km/h (3 Bft) S-SW 205 0 min 0 W/m 1,2 C -0,8 C 13,3 km/h (3 Bft)
02.04.2010 06:09 4,3 C 79 % 1010,5 hPa 0,0 l/m 14,1 km/h (3 Bft) SW 220 0 min 0 W/m 1,0 C -1,3 C 14,1 km/h (3 Bft)
02.04.2010 06:14 4,3 C 79 % 1010,5 hPa 0,0 l/m 14,0 km/h (3 Bft) S-SW 205 0 min 0 W/m 1,0 C -1,2 C 14,0 km/h (3 Bft)
02.04.2010 06:19 4,3 C 79 % 1010,5 hPa 0,0 l/m 14,8 km/h (3 Bft) S-SW 205 0 min 0 W/m 1,0 C -1,7 C 14,8 km/h (3 Bft)
02.04.2010 06:24 4,3 C 79 % 1010,5 hPa 0,0 l/m 17,1 km/h (3 Bft) SW 215 0 min 0 W/m 1,0 C -2,8 C 17,1 km/h (3 Bft)
02.04.2010 06:29 4,3 C 79 % 1010,5 hPa 0,0 l/m 15,1 km/h (3 Bft) SW 220 0 min 0 W/m 1,0 C -1,8 C 15,1 km/h (3 Bft)
02.04.2010 06:34 4,3 C 79 % 1010,5 hPa 0,0 l/m 13,4 km/h (3 Bft) S-SW 200 0 min 0 W/m 1,0 C -0,9 C 13,4 km/h (3 Bft)
02.04.2010 06:39 4,3 C 78 % 1010,5 hPa 0,0 l/m 13,0 km/h (3 Bft) S-SW 200 0 min 0 W/m 0,8 C -0,7 C 13,0 km/h (3 Bft)
02.04.2010 06:44 4,2 C 78 % 1010,5 hPa 0,0 l/m 10,5 km/h (2 Bft) S-SW 205 0 min 0 W/m 0,7 C 0,8 C 10,5 km/h (2 Bft)
02.04.2010 06:50 4,3 C 78 % 1011,5 hPa 0,0 l/m 17,6 km/h (3 Bft) S-SW 210 0 min 0 W/m 0,8 C -3,0 C 17,6 km/h (3 Bft)
02.04.2010 06:55 4,2 C 78 % 1010,5 hPa 0,0 l/m 11,0 km/h (2 Bft) SW 220 0 min 0 W/m 0,7 C 0,5 C 11,0 km/h (2 Bft)
02.04.2010 06:59 4,1 C 78 % 1011,5 hPa 0,0 l/m 14,6 km/h (3 Bft) SW 215 0 min 0 W/m 0,6 C -1,8 C 14,6 km/h (3 Bft)
02.04.2010 07:04 4,1 C 77 % 1011,5 hPa 0,0 l/m 13,1 km/h (3 Bft) S-SW 210 0 min 0 W/m 0,4 C -1,0 C 13,1 km/h (3 Bft)
02.04.2010 07:09 4,0 C 78 % 1011,5 hPa 0,0 l/m 19,0 km/h (3 Bft) S-SW 205 0 min 0 W/m 0,5 C -4,0 C 19,0 km/h (3 Bft)
02.04.2010 07:14 3,9 C 78 % 1011,5 hPa 0,0 l/m 16,3 km/h (3 Bft) S-SW 210 0 min 0 W/m 0,4 C -2,9 C 16,3 km/h (3 Bft)
02.04.2010 07:19 3,9 C 78 % 1011,5 hPa 0,0 l/m 17,9 km/h (3 Bft) SW 215 0 min 0 W/m 0,4 C -3,7 C 17,9 km/h (3 Bft)
02.04.2010 07:25 3,9 C 78 % 1011,5 hPa 0,0 l/m 18,7 km/h (3 Bft) SW 220 0 min 0 W/m 0,4 C -4,0 C 18,7 km/h (3 Bft)
02.04.2010 07:30 3,9 C 78 % 1011,5 hPa 0,0 l/m 14,1 km/h (3 Bft) SW 235 0 min 0 W/m 0,4 C -1,8 C 14,1 km/h (3 Bft)
02.04.2010 07:35 3,9 C 78 % 1011,5 hPa 0,0 l/m 17,2 km/h (3 Bft) SW 225 0 min 0 W/m 0,4 C -3,4 C 17,2 km/h (3 Bft)
02.04.2010 07:39 3,9 C 78 % 1011,5 hPa 0,0 l/m 19,3 km/h (3 Bft) SW 215 0 min 0 W/m 0,4 C -4,3 C 19,3 km/h (3 Bft)
02.04.2010 07:44 3,9 C 78 % 1011,5 hPa 0,0 l/m 17,4 km/h (3 Bft) SW 220 0 min 0 W/m 0,4 C -3,5 C 17,4 km/h (3 Bft)
02.04.2010 07:49 3,9 C 78 % 1011,5 hPa 0,0 l/m 12,2 km/h (2 Bft) SW 220 0 min 0 W/m 0,4 C -0,6 C 12,2 km/h (2 Bft)
02.04.2010 07:54 4,0 C 78 % 1011,5 hPa 0,0 l/m 17,5 km/h (3 Bft) S-SW 205 0 min 0 W/m 0,5 C -3,4 C 17,5 km/h (3 Bft)
02.04.2010 07:59 4,1 C 78 % 1011,5 hPa 0,0 l/m 12,8 km/h (3 Bft) SW 220 0 min 0 W/m 0,6 C -0,8 C 12,8 km/h (3 Bft)
02.04.2010 08:05 4,1 C 78 % 1011,5 hPa 0,0 l/m 17,3 km/h (3 Bft) SW 225 0 min 0 W/m 0,6 C -3,2 C 17,3 km/h (3 Bft)
02.04.2010 08:10 4,1 C 77 % 1011,5 hPa 0,0 l/m 17,0 km/h (3 Bft) SW 220 0 min 0 W/m 0,4 C -3,0 C 17,0 km/h (3 Bft)
02.04.2010 08:14 4,2 C 77 % 1011,5 hPa 0,0 l/m 17,3 km/h (3 Bft) SW 220 0 min 0 W/m 0,5 C -3,0 C 17,3 km/h (3 Bft)
02.04.2010 08:19 4,1 C 77 % 1011,5 hPa 0,0 l/m 16,8 km/h (3 Bft) SW 215 0 min 0 W/m 0,4 C -2,9 C 16,8 km/h (3 Bft)
02.04.2010 08:24 4,3 C 77 % 1011,5 hPa 0,0 l/m 18,3 km/h (3 Bft) S-SW 210 0 min 0 W/m 0,6 C -3,4 C 18,3 km/h (3 Bft)
02.04.2010 08:29 4,3 C 76 % 1011,5 hPa 0,0 l/m 17,9 km/h (3 Bft) S-SW 210 0 min 0 W/m 0,5 C -3,2 C 17,9 km/h (3 Bft)
02.04.2010 08:34 4,4 C 76 % 1011,5 hPa 0,0 l/m 14,5 km/h (3 Bft) S-SW 210 0 min 0 W/m 0,5 C -1,4 C 14,5 km/h (3 Bft)
02.04.2010 08:39 4,4 C 76 % 1011,5 hPa 0,0 l/m 20,9 km/h (4 Bft) SW 215 0 min 0 W/m 0,5 C -4,3 C 20,9 km/h (4 Bft)
02.04.2010 08:44 4,5 C 76 % 1011,5 hPa 0,0 l/m 20,4 km/h (4 Bft) SW 220 0 min 0 W/m 0,6 C -4,0 C 20,4 km/h (4 Bft)
02.04.2010 08:49 4,6 C 76 % 1011,5 hPa 0,0 l/m 21,8 km/h (4 Bft) SW 215 0 min 0 W/m 0,7 C -4,4 C 21,8 km/h (4 Bft)
02.04.2010 08:55 4,7 C 76 % 1011,5 hPa 0,0 l/m 23,8 km/h (4 Bft) SW 215 0 min 0 W/m 0,8 C -5,0 C 23,8 km/h (4 Bft)
02.04.2010 09:00 4,7 C 75 % 1011,5 hPa 0,0 l/m 21,8 km/h (4 Bft) SW 220 0 min 0 W/m 0,7 C -4,3 C 21,8 km/h (4 Bft)
02.04.2010 09:04 4,8 C 75 % 1011,5 hPa 0,0 l/m 19,1 km/h (3 Bft) SW 225 0 min 0 W/m 0,8 C -3,1 C 19,1 km/h (3 Bft)
02.04.2010 09:09 4,9 C 75 % 1011,5 hPa 0,0 l/m 17,7 km/h (3 Bft) SW 220 0 min 0 W/m 0,8 C -2,3 C 17,7 km/h (3 Bft)
02.04.2010 09:14 4,9 C 75 % 1011,5 hPa 0,0 l/m 25,3 km/h (4 Bft) SW 230 0 min 0 W/m 0,8 C -5,2 C 25,3 km/h (4 Bft)
02.04.2010 09:19 5,2 C 74 % 1011,5 hPa 0,0 l/m 22,8 km/h (4 Bft) S-SW 210 0 min 0 W/m 1,0 C -3,9 C 22,8 km/h (4 Bft)
02.04.2010 09:24 5,3 C 74 % 1011,5 hPa 0,0 l/m 25,3 km/h (4 Bft) W-SW 240 0 min 0 W/m 1,0 C -4,6 C 25,3 km/h (4 Bft)
02.04.2010 09:30 5,3 C 74 % 1011,5 hPa 0,0 l/m 26,4 km/h (4 Bft) SW 235 0 min 0 W/m 1,0 C -5,0 C 26,4 km/h (4 Bft)
02.04.2010 09:35 5,4 C 74 % 1011,5 hPa 0,0 l/m 23,0 km/h (4 Bft) SW 215 0 min 0 W/m 1,1 C -3,7 C 23,0 km/h (4 Bft)
02.04.2010 09:39 5,6 C 75 % 1011,5 hPa 0,0 l/m 23,9 km/h (4 Bft) SW 220 0 min 0 W/m 1,5 C -3,8 C 23,9 km/h (4 Bft)
02.04.2010 09:44 5,7 C 74 % 1011,5 hPa 0,0 l/m 24,1 km/h (4 Bft) SW 220 0 min 0 W/m 1,4 C -3,7 C 24,1 km/h (4 Bft)
02.04.2010 09:49 5,9 C 74 % 1011,5 hPa 0,0 l/m 22,3 km/h (4 Bft) SW 225 0 min 0 W/m 1,6 C -2,8 C 22,3 km/h (4 Bft)
02.04.2010 09:54 6,2 C 73 % 1011,5 hPa 0,0 l/m 21,1 km/h (4 Bft) W-SW 240 0 min 0 W/m 1,7 C -2,0 C 21,1 km/h (4 Bft)
02.04.2010 09:59 6,3 C 72 % 1011,5 hPa 0,0 l/m 27,2 km/h (5 Bft) SW 235 0 min 0 W/m 1,6 C -3,8 C 27,2 km/h (5 Bft)
02.04.2010 10:04 6,4 C 72 % 1011,5 hPa 0,0 l/m 22,5 km/h (4 Bft) W-SW 240 0 min 0 W/m 1,7 C -2,3 C 22,5 km/h (4 Bft)
02.04.2010 10:09 6,8 C 69 % 1011,5 hPa 0,0 l/m 25,5 km/h (4 Bft) SW 235 0 min 0 W/m 1,5 C -2,7 C 25,5 km/h (4 Bft)
02.04.2010 10:14 6,9 C 70 % 1011,5 hPa 0,0 l/m 28,5 km/h (5 Bft) W-SW 240 0 min 0 W/m 1,8 C -3,3 C 28,5 km/h (5 Bft)
02.04.2010 10:19 7,0 C 69 % 1011,5 hPa 0,0 l/m 21,4 km/h (4 Bft) SW 230 0 min 0 W/m 1,7 C -1,1 C 21,4 km/h (4 Bft)
02.04.2010 10:24 7,2 C 69 % 1011,5 hPa 0,0 l/m 26,8 km/h (4 Bft) W-SW 240 0 min 0 W/m 1,9 C -2,5 C 26,8 km/h (4 Bft)
02.04.2010 10:29 7,6 C 68 % 1011,5 hPa 0,0 l/m 23,8 km/h (4 Bft) W-SW 240 0 min 0 W/m 2,1 C -1,1 C 23,8 km/h (4 Bft)
02.04.2010 10:35 7,7 C 67 % 1011,5 hPa 0,0 l/m 26,1 km/h (4 Bft) SW 230 0 min 0 W/m 2,0 C -1,6 C 26,1 km/h (4 Bft)
02.04.2010 10:40 7,9 C 65 % 1011,5 hPa 0,0 l/m 24,0 km/h (4 Bft) SW 235 0 min 0 W/m 1,7 C -0,7 C 24,0 km/h (4 Bft)
02.04.2010 10:44 8,3 C 66 % 1011,5 hPa 0,0 l/m 24,4 km/h (4 Bft) SW 225 0 min 0 W/m 2,3 C -0,3 C 24,4 km/h (4 Bft)
02.04.2010 10:49 8,4 C 65 % 1011,5 hPa 0,0 l/m 28,6 km/h (5 Bft) W-SW 240 0 min 0 W/m 2,2 C -1,3 C 28,6 km/h (5 Bft)
02.04.2010 10:54 8,8 C 65 % 1011,5 hPa 0,0 l/m 19,4 km/h (3 Bft) W-SW 245 0 min 0 W/m 2,6 C 1,9 C 19,4 km/h (3 Bft)
02.04.2010 10:59 9,3 C 63 % 1011,5 hPa 0,0 l/m 24,1 km/h (4 Bft) SW 235 0 min 0 W/m 2,6 C 1,1 C 24,1 km/h (4 Bft)
02.04.2010 11:05 9,6 C 62 % 1011,5 hPa 0,0 l/m 25,0 km/h (4 Bft) W-SW 245 0 min 0 W/m 2,7 C 1,3 C 25,0 km/h (4 Bft)
02.04.2010 11:10 9,7 C 61 % 1011,5 hPa 0,0 l/m 28,9 km/h (5 Bft) SW 225 0 min 0 W/m 2,5 C 0,5 C 28,9 km/h (5 Bft)
02.04.2010 11:14 10,0 C 62 % 1011,5 hPa 0,0 l/m 29,0 km/h (5 Bft) W-SW 240 0 min 0 W/m 3,1 C 0,9 C 29,0 km/h (5 Bft)
02.04.2010 11:19 10,3 C 60 % 1011,5 hPa 0,0 l/m 26,6 km/h (4 Bft) SW 235 0 min 0 W/m 2,9 C 1,8 C 26,6 km/h (4 Bft)
02.04.2010 11:24 10,4 C 60 % 1011,5 hPa 0,0 l/m 19,6 km/h (3 Bft) SW 220 0 min 0 W/m 3,0 C 3,9 C 19,6 km/h (3 Bft)
02.04.2010 11:29 10,6 C 60 % 1011,5 hPa 0,0 l/m 30,0 km/h (5 Bft) SW 215 0 min 0 W/m 3,2 C 1,5 C 30,0 km/h (5 Bft)
02.04.2010 11:34 10,8 C 56 % 1011,5 hPa 0,0 l/m 26,2 km/h (4 Bft) W-SW 250 0 min 0 W/m 2,4 C 2,6 C 26,2 km/h (4 Bft)
02.04.2010 11:39 10,8 C 57 % 1011,5 hPa 0,0 l/m 33,2 km/h (5 Bft) W-SW 245 0 min 0 W/m 2,6 C 1,2 C 33,2 km/h (5 Bft)
02.04.2010 11:45 11,1 C 58 % 1011,5 hPa 0,0 l/m 20,3 km/h (4 Bft) SW 230 0 min 0 W/m 3,2 C 4,6 C 20,3 km/h (4 Bft)
02.04.2010 11:50 11,2 C 58 % 1011,5 hPa 0,0 l/m 33,2 km/h (5 Bft) W-SW 240 0 min 0 W/m 3,2 C 1,7 C 33,2 km/h (5 Bft)
02.04.2010 11:54 11,3 C 56 % 1011,5 hPa 0,0 l/m 28,6 km/h (5 Bft) SW 225 0 min 0 W/m 2,8 C 2,8 C 28,6 km/h (5 Bft)
02.04.2010 11:59 11,6 C 56 % 1011,5 hPa 0,0 l/m 23,0 km/h (4 Bft) SW 230 0 min 0 W/m 3,1 C 4,5 C 23,0 km/h (4 Bft)
02.04.2010 12:04 11,6 C 55 % 1011,5 hPa 0,0 l/m 23,4 km/h (4 Bft) S-SW 205 0 min 0 W/m 2,9 C 4,4 C 23,4 km/h (4 Bft)
02.04.2010 12:09 11,8 C 56 % 1011,5 hPa 0,0 l/m 26,5 km/h (4 Bft) SW 230 0 min 0 W/m 3,3 C 3,9 C 26,5 km/h (4 Bft)
02.04.2010 12:15 11,9 C 53 % 1011,5 hPa 0,0 l/m 31,0 km/h (5 Bft) W-SW 250 0 min 0 W/m 2,6 C 3,1 C 31,0 km/h (5 Bft)
02.04.2010 12:20 12,1 C 54 % 1011,5 hPa 0,0 l/m 28,0 km/h (5 Bft) W-SW 240 0 min 0 W/m 3,1 C 4,0 C 28,0 km/h (5 Bft)
02.04.2010 12:24 12,2 C 53 % 1011,5 hPa 0,0 l/m 29,6 km/h (5 Bft) W-SW 240 0 min 0 W/m 2,9 C 3,8 C 29,6 km/h (5 Bft)
02.04.2010 12:29 12,2 C 54 % 1011,5 hPa 0,0 l/m 26,3 km/h (4 Bft) W-SW 240 0 min 0 W/m 3,2 C 4,5 C 26,3 km/h (4 Bft)
02.04.2010 12:34 12,4 C 53 % 1011,5 hPa 0,0 l/m 27,0 km/h (5 Bft) SW 220 0 min 0 W/m 3,1 C 4,6 C 27,0 km/h (5 Bft)
02.04.2010 12:39 12,6 C 50 % 1011,5 hPa 0,0 l/m 30,3 km/h (5 Bft) SW 225 0 min 0 W/m 2,5 C 4,3 C 30,3 km/h (5 Bft)
02.04.2010 12:44 12,6 C 50 % 1011,5 hPa 0,0 l/m 35,6 km/h (5 Bft) SW 230 0 min 0 W/m 2,5 C 3,4 C 35,6 km/h (5 Bft)
02.04.2010 12:49 13,2 C 47 % 1011,5 hPa 0,0 l/m 29,2 km/h (5 Bft) S-SW 205 0 min 0 W/m 2,1 C 5,3 C 29,2 km/h (5 Bft)
02.04.2010 12:54 13,7 C 45 % 1011,5 hPa 0,0 l/m 31,6 km/h (5 Bft) S-SW 210 0 min 0 W/m 2,0 C 5,6 C 31,6 km/h (5 Bft)
02.04.2010 12:59 13,7 C 44 % 1011,5 hPa 0,0 l/m 28,3 km/h (5 Bft) W-SW 240 0 min 0 W/m 1,7 C 6,2 C 28,3 km/h (5 Bft)
02.04.2010 13:04 13,8 C 45 % 1011,5 hPa 0,0 l/m 31,6 km/h (5 Bft) SW 235 0 min 0 W/m 2,1 C 5,7 C 31,6 km/h (5 Bft)
02.04.2010 13:09 14,0 C 41 % 1011,5 hPa 0,0 l/m 29,5 km/h (5 Bft) W-SW 240 0 min 0 W/m 1,0 C 6,4 C 29,5 km/h (5 Bft)
02.04.2010 13:15 13,5 C 41 % 1011,5 hPa 0,0 l/m 32,7 km/h (5 Bft) W-SW 245 0 min 0 W/m 0,5 C 5,1 C 32,7 km/h (5 Bft)
02.04.2010 13:20 13,5 C 42 % 1011,5 hPa 0,0 l/m 31,4 km/h (5 Bft) SW 230 0 min 0 W/m 0,8 C 5,3 C 31,4 km/h (5 Bft)
02.04.2010 13:24 13,6 C 44 % 1011,5 hPa 0,0 l/m 28,2 km/h (5 Bft) SW 235 0 min 0 W/m 1,6 C 6,1 C 28,2 km/h (5 Bft)
02.04.2010 13:29 13,5 C 43 % 1011,5 hPa 0,0 l/m 30,6 km/h (5 Bft) W-SW 240 0 min 0 W/m 1,2 C 5,5 C 30,6 km/h (5 Bft)
02.04.2010 13:34 13,4 C 44 % 1011,5 hPa 0,0 l/m 27,7 km/h (5 Bft) SW 230 0 min 0 W/m 1,4 C 5,9 C 27,7 km/h (5 Bft)
02.04.2010 13:39 13,6 C 46 % 1011,5 hPa 0,0 l/m 26,8 km/h (4 Bft) W-SW 240 0 min 0 W/m 2,2 C 6,3 C 26,8 km/h (4 Bft)
02.04.2010 13:44 13,5 C 43 % 1011,5 hPa 0,0 l/m 29,6 km/h (5 Bft) SW 220 0 min 0 W/m 1,2 C 5,7 C 29,6 km/h (5 Bft)
02.04.2010 13:49 13,1 C 43 % 1011,5 hPa 0,0 l/m 31,0 km/h (5 Bft) SW 225 0 min 0 W/m 0,8 C 4,8 C 31,0 km/h (5 Bft)
02.04.2010 13:54 12,6 C 45 % 1010,5 hPa 0,0 l/m 23,0 km/h (4 Bft) SW 230 0 min 0 W/m 1,0 C 5,8 C 23,0 km/h (4 Bft)
02.04.2010 14:00 13,6 C 41 % 1010,5 hPa 0,0 l/m 25,6 km/h (4 Bft) SW 235 0 min 0 W/m 0,6 C 6,6 C 25,6 km/h (4 Bft)
02.04.2010 14:04 13,6 C 38 % 1010,5 hPa 0,0 l/m 25,1 km/h (4 Bft) SW 230 0 min 0 W/m -0,4 C 6,7 C 25,1 km/h (4 Bft)
02.04.2010 14:09 13,3 C 41 % 1010,5 hPa 0,0 l/m 28,5 km/h (5 Bft) W-SW 250 0 min 0 W/m 0,3 C 5,6 C 28,5 km/h (5 Bft)
02.04.2010 14:14 13,3 C 43 % 1010,5 hPa 0,0 l/m 19,0 km/h (3 Bft) SW 235 0 min 0 W/m 1,0 C 7,8 C 19,0 km/h (3 Bft)
02.04.2010 14:19 13,9 C 42 % 1010,5 hPa 0,0 l/m 25,8 km/h (4 Bft) S-SW 210 0 min 0 W/m 1,2 C 6,9 C 25,8 km/h (4 Bft)
02.04.2010 14:24 14,0 C 38 % 1010,5 hPa 0,0 l/m 25,7 km/h (4 Bft) W-SW 240 0 min 0 W/m -0,1 C 7,1 C 25,7 km/h (4 Bft)
02.04.2010 14:30 14,1 C 38 % 1010,5 hPa 0,0 l/m 22,8 km/h (4 Bft) S-SW 205 0 min 0 W/m 0,0 C 7,9 C 22,8 km/h (4 Bft)
02.04.2010 14:35 13,8 C 36 % 1010,5 hPa 0,0 l/m 30,4 km/h (5 Bft) W-SW 240 0 min 0 W/m -1,0 C 5,9 C 30,4 km/h (5 Bft)
02.04.2010 14:39 13,8 C 39 % 1010,5 hPa 0,0 l/m 27,0 km/h (5 Bft) W-SW 240 0 min 0 W/m 0,1 C 6,6 C 27,0 km/h (5 Bft)
02.04.2010 14:44 14,6 C 37 % 1010,5 hPa 0,0 l/m 29,8 km/h (5 Bft) SW 220 0 min 0 W/m 0,1 C 7,2 C 29,8 km/h (5 Bft)
02.04.2010 14:49 14,8 C 36 % 1010,5 hPa 0,0 l/m 31,0 km/h (5 Bft) W-SW 240 0 min 0 W/m -0,1 C 7,2 C 31,0 km/h (5 Bft)
02.04.2010 14:54 14,3 C 37 % 1010,5 hPa 0,0 l/m 32,2 km/h (5 Bft) W-SW 250 0 min 0 W/m -0,2 C 6,3 C 32,2 km/h (5 Bft)
02.04.2010 14:59 13,7 C 40 % 1010,5 hPa 0,0 l/m 29,8 km/h (5 Bft) SW 220 0 min 0 W/m 0,4 C 5,9 C 29,8 km/h (5 Bft)
02.04.2010 15:05 14,8 C 37 % 1010,5 hPa 0,0 l/m 24,2 km/h (4 Bft) SW 220 0 min 0 W/m 0,3 C 8,5 C 24,2 km/h (4 Bft)
02.04.2010 15:10 15,0 C 36 % 1010,5 hPa 0,0 l/m 26,0 km/h (4 Bft) SW 230 0 min 0 W/m 0,1 C 8,4 C 26,0 km/h (4 Bft)
02.04.2010 15:14 14,8 C 36 % 1010,5 hPa 0,0 l/m 27,5 km/h (5 Bft) S-SW 210 0 min 0 W/m -0,1 C 7,8 C 27,5 km/h (5 Bft)
02.04.2010 15:19 15,6 C 36 % 1010,5 hPa 0,0 l/m 29,0 km/h (5 Bft) W-SW 245 0 min 0 W/m 0,6 C 8,7 C 29,0 km/h (5 Bft)
02.04.2010 15:24 15,7 C 33 % 1010,5 hPa 0,0 l/m 26,8 km/h (4 Bft) SW 235 0 min 0 W/m -0,5 C 9,2 C 26,8 km/h (4 Bft)
02.04.2010 15:29 15,8 C 35 % 1010,5 hPa 0,0 l/m 25,1 km/h (4 Bft) SW 235 0 min 0 W/m 0,4 C 9,7 C 25,1 km/h (4 Bft)
02.04.2010 15:34 16,1 C 36 % 1010,5 hPa 0,0 l/m 28,6 km/h (5 Bft) S-SW 195 0 min 0 W/m 1,0 C 9,5 C 28,6 km/h (5 Bft)
02.04.2010 15:39 17,4 C 33 % 1010,5 hPa 0,0 l/m 20,9 km/h (4 Bft) S-SW 205 0 min 0 W/m 1,0 C 12,7 C 20,9 km/h (4 Bft)
02.04.2010 15:45 17,6 C 32 % 1010,5 hPa 0,0 l/m 29,6 km/h (5 Bft) W-SW 250 0 min 0 W/m 0,7 C 11,4 C 29,6 km/h (5 Bft)
02.04.2010 15:50 16,5 C 34 % 1010,5 hPa 0,0 l/m 31,1 km/h (5 Bft) SW 220 0 min 0 W/m 0,6 C 9,6 C 31,1 km/h (5 Bft)
02.04.2010 15:54 17,6 C 34 % 1010,5 hPa 0,0 l/m 20,0 km/h (4 Bft) S-SW 195 0 min 0 W/m 1,6 C 13,1 C 20,0 km/h (4 Bft)
02.04.2010 15:59 17,7 C 34 % 1010,5 hPa 0,0 l/m 20,0 km/h (4 Bft) S-SW 200 0 min 0 W/m 1,6 C 13,2 C 20,0 km/h (4 Bft)
02.04.2010 16:04 18,2 C 33 % 1010,5 hPa 0,0 l/m 23,5 km/h (4 Bft) S-SW 205 0 min 0 W/m 1,7 C 13,2 C 23,5 km/h (4 Bft)
02.04.2010 16:09 18,2 C 28 % 1010,5 hPa 0,0 l/m 28,3 km/h (5 Bft) SW 220 0 min 0 W/m -0,6 C 12,4 C 28,3 km/h (5 Bft)
02.04.2010 16:15 18,4 C 28 % 1010,5 hPa 0,0 l/m 19,4 km/h (3 Bft) S-SW 210 0 min 0 W/m -0,4 C 14,3 C 19,4 km/h (3 Bft)
02.04.2010 16:20 18,2 C 32 % 1010,5 hPa 0,0 l/m 25,9 km/h (4 Bft) SW 230 0 min 0 W/m 1,2 C 12,8 C 25,9 km/h (4 Bft)
02.04.2010 16:24 17,4 C 30 % 1010,5 hPa 0,0 l/m 28,0 km/h (5 Bft) SW 220 0 min 0 W/m -0,3 C 11,4 C 28,0 km/h (5 Bft)
02.04.2010 16:29 17,4 C 30 % 1010,5 hPa 0,0 l/m 30,5 km/h (5 Bft) W-SW 240 0 min 0 W/m -0,3 C 11,0 C 30,5 km/h (5 Bft)
02.04.2010 16:34 17,5 C 30 % 1010,5 hPa 0,0 l/m 22,3 km/h (4 Bft) SW 225 0 min 0 W/m -0,3 C 12,5 C 22,3 km/h (4 Bft)
02.04.2010 16:39 17,6 C 28 % 1010,5 hPa 0,0 l/m 21,2 km/h (4 Bft) W-SW 240 0 min 0 W/m -1,1 C 12,9 C 21,2 km/h (4 Bft)
02.04.2010 16:44 18,1 C 32 % 1010,5 hPa 0,0 l/m 22,0 km/h (4 Bft) SW 215 0 min 0 W/m 1,2 C 13,3 C 22,0 km/h (4 Bft)
02.04.2010 16:49 18,0 C 29 % 1010,5 hPa 0,0 l/m 26,1 km/h (4 Bft) SW 230 0 min 0 W/m -0,3 C 12,5 C 26,1 km/h (4 Bft)
02.04.2010 16:55 17,9 C 31 % 1010,5 hPa 0,0 l/m 22,5 km/h (4 Bft) SW 225 0 min 0 W/m 0,5 C 13,0 C 22,5 km/h (4 Bft)
02.04.2010 16:59 18,2 C 28 % 1010,5 hPa 0,0 l/m 20,1 km/h (4 Bft) S 180 0 min 0 W/m -0,6 C 13,9 C 20,1 km/h (4 Bft)
02.04.2010 17:04 18,5 C 30 % 1009,5 hPa 0,0 l/m 23,3 km/h (4 Bft) S-SW 205 0 min 0 W/m 0,6 C 13,6 C 23,3 km/h (4 Bft)
02.04.2010 17:09 18,8 C 30 % 1009,5 hPa 0,0 l/m 18,3 km/h (3 Bft) SW 215 0 min 0 W/m 0,9 C 15,0 C 18,3 km/h (3 Bft)
02.04.2010 17:14 17,2 C 30 % 1010,5 hPa 0,0 l/m 19,8 km/h (3 Bft) SW 215 0 min 0 W/m -0,5 C 12,6 C 19,8 km/h (3 Bft)
02.04.2010 17:20 16,1 C 31 % 1010,5 hPa 0,0 l/m 22,1 km/h (4 Bft) W-SW 240 0 min 0 W/m -1,0 C 10,7 C 22,1 km/h (4 Bft)
02.04.2010 17:25 16,2 C 31 % 1009,5 hPa 0,0 l/m 18,3 km/h (3 Bft) W-SW 245 0 min 0 W/m -0,9 C 11,7 C 18,3 km/h (3 Bft)
02.04.2010 17:29 16,8 C 30 % 1009,5 hPa 0,0 l/m 22,0 km/h (4 Bft) SW 225 0 min 0 W/m -0,9 C 11,6 C 22,0 km/h (4 Bft)
02.04.2010 17:34 17,0 C 30 % 1009,5 hPa 0,0 l/m 20,1 km/h (4 Bft) S-SW 205 0 min 0 W/m -0,7 C 12,3 C 20,1 km/h (4 Bft)
02.04.2010 17:39 17,5 C 29 % 1009,5 hPa 0,0 l/m 17,1 km/h (3 Bft) S 190 0 min 0 W/m -0,7 C 13,7 C 17,1 km/h (3 Bft)
02.04.2010 17:44 18,0 C 29 % 1009,5 hPa 0,0 l/m 17,5 km/h (3 Bft) S-SW 205 0 min 0 W/m -0,3 C 14,2 C 17,5 km/h (3 Bft)
02.04.2010 17:49 18,0 C 28 % 1009,5 hPa 0,0 l/m 24,9 km/h (4 Bft) S 190 0 min 0 W/m -0,8 C 12,7 C 24,9 km/h (4 Bft)
02.04.2010 17:54 17,6 C 28 % 1009,5 hPa 0,0 l/m 24,5 km/h (4 Bft) S-SW 210 0 min 0 W/m -1,1 C 12,2 C 24,5 km/h (4 Bft)
02.04.2010 18:00 17,7 C 29 % 1009,5 hPa 0,0 l/m 23,8 km/h (4 Bft) S-SW 210 0 min 0 W/m -0,6 C 12,5 C 23,8 km/h (4 Bft)
02.04.2010 18:04 17,8 C 28 % 1009,5 hPa 0,0 l/m 17,6 km/h (3 Bft) S-SW 195 0 min 0 W/m -0,9 C 13,9 C 17,6 km/h (3 Bft)
02.04.2010 18:09 16,8 C 28 % 1009,5 hPa 0,0 l/m 22,3 km/h (4 Bft) S 185 0 min 0 W/m -1,8 C 11,6 C 22,3 km/h (4 Bft)
02.04.2010 18:14 16,8 C 30 % 1009,5 hPa 0,0 l/m 24,6 km/h (4 Bft) S 180 0 min 0 W/m -0,9 C 11,1 C 24,6 km/h (4 Bft)
02.04.2010 18:19 16,5 C 29 % 1009,5 hPa 0,0 l/m 19,0 km/h (3 Bft) S 185 0 min 0 W/m -1,6 C 11,9 C 19,0 km/h (3 Bft)
02.04.2010 18:25 16,6 C 29 % 1009,5 hPa 0,0 l/m 18,2 km/h (3 Bft) S 185 0 min 0 W/m -1,5 C 12,2 C 18,2 km/h (3 Bft)
02.04.2010 18:30 16,2 C 29 % 1009,5 hPa 0,0 l/m 20,9 km/h (4 Bft) S 185 0 min 0 W/m -1,8 C 11,1 C 20,9 km/h (4 Bft)
02.04.2010 18:34 16,0 C 30 % 1009,5 hPa 0,0 l/m 14,8 km/h (3 Bft) S 190 0 min 0 W/m -1,6 C 12,5 C 14,8 km/h (3 Bft)
02.04.2010 18:39 15,0 C 30 % 1009,5 hPa 0,0 l/m 19,5 km/h (3 Bft) S 180 0 min 0 W/m -2,4 C 9,9 C 19,5 km/h (3 Bft)
02.04.2010 18:44 15,0 C 31 % 1009,5 hPa 0,0 l/m 16,9 km/h (3 Bft) S 180 0 min 0 W/m -2,0 C 10,6 C 16,9 km/h (3 Bft)
02.04.2010 18:49 14,5 C 32 % 1009,5 hPa 0,0 l/m 16,0 km/h (3 Bft) S 190 0 min 0 W/m -2,0 C 10,3 C 16,0 km/h (3 Bft)
02.04.2010 18:54 13,2 C 34 % 1009,5 hPa 0,0 l/m 12,0 km/h (2 Bft) S 180 0 min 0 W/m -2,3 C 10,2 C 12,0 km/h (2 Bft)
02.04.2010 18:59 12,3 C 38 % 1009,5 hPa 0,0 l/m 15,3 km/h (3 Bft) S 180 0 min 0 W/m -1,6 C 7,8 C 15,3 km/h (3 Bft)
02.04.2010 19:04 12,0 C 38 % 1009,5 hPa 0,0 l/m 13,4 km/h (3 Bft) S 180 0 min 0 W/m -1,9 C 8,2 C 13,4 km/h (3 Bft)
02.04.2010 19:09 11,7 C 38 % 1009,5 hPa 0,0 l/m 14,8 km/h (3 Bft) S 185 0 min 0 W/m -2,1 C 7,3 C 14,8 km/h (3 Bft)
02.04.2010 19:14 11,2 C 40 % 1009,5 hPa 0,0 l/m 16,8 km/h (3 Bft) S 180 0 min 0 W/m -1,9 C 5,9 C 16,8 km/h (3 Bft)
02.04.2010 19:19 11,2 C 40 % 1009,5 hPa 0,0 l/m 14,1 km/h (3 Bft) S 175 0 min 0 W/m -1,9 C 7,0 C 14,1 km/h (3 Bft)
02.04.2010 19:24 10,9 C 41 % 1009,5 hPa 0,0 l/m 13,8 km/h (3 Bft) S 175 0 min 0 W/m -1,8 C 6,7 C 13,8 km/h (3 Bft)
02.04.2010 19:29 10,6 C 42 % 1009,5 hPa 0,0 l/m 15,1 km/h (3 Bft) S 170 0 min 0 W/m -1,8 C 5,8 C 15,1 km/h (3 Bft)
02.04.2010 19:35 10,6 C 43 % 1009,5 hPa 0,0 l/m 12,5 km/h (2 Bft) S 170 0 min 0 W/m -1,4 C 7,0 C 12,5 km/h (2 Bft)
02.04.2010 19:39 10,5 C 43 % 1009,5 hPa 0,0 l/m 11,1 km/h (2 Bft) S 170 0 min 0 W/m -1,5 C 7,5 C 11,1 km/h (2 Bft)
02.04.2010 19:44 10,2 C 44 % 1009,5 hPa 0,0 l/m 14,4 km/h (3 Bft) S 170 0 min 0 W/m -1,5 C 5,6 C 14,4 km/h (3 Bft)
02.04.2010 19:49 10,2 C 45 % 1009,5 hPa 0,0 l/m 10,5 km/h (2 Bft) S 170 0 min 0 W/m -1,2 C 7,5 C 10,5 km/h (2 Bft)
02.04.2010 19:54 10,0 C 45 % 1009,5 hPa 0,0 l/m 14,5 km/h (3 Bft) S 175 0 min 0 W/m -1,4 C 5,3 C 14,5 km/h (3 Bft)
02.04.2010 19:59 9,8 C 45 % 1009,5 hPa 0,0 l/m 15,2 km/h (3 Bft) S 170 0 min 0 W/m -1,6 C 4,8 C 15,2 km/h (3 Bft)
02.04.2010 20:05 9,7 C 45 % 1009,5 hPa 0,0 l/m 14,4 km/h (3 Bft) S 170 0 min 0 W/m -1,6 C 5,0 C 14,4 km/h (3 Bft)
02.04.2010 20:09 9,6 C 45 % 1009,5 hPa 0,0 l/m 15,1 km/h (3 Bft) S-SO 165 0 min 0 W/m -1,7 C 4,6 C 15,1 km/h (3 Bft)
02.04.2010 20:14 9,5 C 45 % 1009,5 hPa 0,0 l/m 10,4 km/h (2 Bft) S 180 0 min 0 W/m -1,8 C 6,8 C 10,4 km/h (2 Bft)
02.04.2010 20:19 9,4 C 46 % 1009,5 hPa 0,0 l/m 10,4 km/h (2 Bft) S 180 0 min 0 W/m -1,6 C 6,7 C 10,4 km/h (2 Bft)
02.04.2010 20:24 9,3 C 46 % 1009,5 hPa 0,0 l/m 15,3 km/h (3 Bft) S 180 0 min 0 W/m -1,7 C 4,2 C 15,3 km/h (3 Bft)
02.04.2010 20:29 9,2 C 46 % 1009,5 hPa 0,0 l/m 10,4 km/h (2 Bft) S 185 0 min 0 W/m -1,8 C 6,5 C 10,4 km/h (2 Bft)
02.04.2010 20:34 9,1 C 46 % 1009,5 hPa 0,0 l/m 11,3 km/h (2 Bft) S 175 0 min 0 W/m -1,9 C 5,9 C 11,3 km/h (2 Bft)
02.04.2010 20:40 9,0 C 47 % 1009,5 hPa 0,0 l/m 15,8 km/h (3 Bft) S 175 0 min 0 W/m -1,7 C 3,6 C 15,8 km/h (3 Bft)
02.04.2010 20:44 8,9 C 47 % 1009,5 hPa 0,0 l/m 9,6 km/h (2 Bft) S 170 0 min 0 W/m -1,8 C 6,6 C 9,6 km/h (2 Bft)
02.04.2010 20:49 8,8 C 47 % 1009,5 hPa 0,0 l/m 10,7 km/h (2 Bft) S 170 0 min 0 W/m -1,9 C 5,9 C 10,7 km/h (2 Bft)
02.04.2010 20:54 8,7 C 47 % 1009,5 hPa 0,0 l/m 11,3 km/h (2 Bft) S-SO 165 0 min 0 W/m -2,0 C 5,4 C 11,3 km/h (2 Bft)
02.04.2010 20:59 8,6 C 48 % 1009,5 hPa 0,0 l/m 11,1 km/h (2 Bft) S-SO 165 0 min 0 W/m -1,8 C 5,4 C 11,1 km/h (2 Bft)
02.04.2010 21:05 8,5 C 48 % 1009,5 hPa 0,0 l/m 9,4 km/h (2 Bft) S 170 0 min 0 W/m -1,9 C 6,3 C 9,4 km/h (2 Bft)
02.04.2010 21:10 8,3 C 49 % 1009,5 hPa 0,0 l/m 7,2 km/h (2 Bft) S-SO 165 0 min 0 W/m -1,8 C 7,7 C 7,2 km/h (2 Bft)
02.04.2010 21:14 8,2 C 49 % 1009,5 hPa 0,0 l/m 8,8 km/h (2 Bft) S-SO 160 0 min 0 W/m -1,9 C 6,4 C 8,8 km/h (2 Bft)
02.04.2010 21:19 8,1 C 50 % 1009,5 hPa 0,0 l/m 7,8 km/h (2 Bft) S 175 0 min 0 W/m -1,7 C 7,0 C 7,8 km/h (2 Bft)
02.04.2010 21:24 8,0 C 51 % 1009,5 hPa 0,0 l/m 12,6 km/h (3 Bft) S-SO 165 0 min 0 W/m -1,5 C 3,9 C 12,6 km/h (3 Bft)
02.04.2010 21:29 8,0 C 52 % 1009,5 hPa 0,0 l/m 9,4 km/h (2 Bft) S 175 0 min 0 W/m -1,2 C 5,8 C 9,4 km/h (2 Bft)
02.04.2010 21:34 7,9 C 53 % 1009,5 hPa 0,0 l/m 11,0 km/h (2 Bft) S 175 0 min 0 W/m -1,1 C 4,7 C 11,0 km/h (2 Bft)
02.04.2010 21:40 7,9 C 53 % 1009,5 hPa 0,0 l/m 11,9 km/h (2 Bft) S-SO 165 0 min 0 W/m -1,1 C 4,2 C 11,9 km/h (2 Bft)
02.04.2010 21:45 7,9 C 53 % 1009,5 hPa 0,0 l/m 10,5 km/h (2 Bft) S 170 0 min 0 W/m -1,1 C 5,0 C 10,5 km/h (2 Bft)
02.04.2010 21:49 7,9 C 54 % 1009,5 hPa 0,0 l/m 11,9 km/h (2 Bft) S 180 0 min 0 W/m -0,8 C 4,2 C 11,9 km/h (2 Bft)
02.04.2010 21:54 7,8 C 54 % 1009,5 hPa 0,0 l/m 12,4 km/h (2 Bft) S 175 0 min 0 W/m -0,9 C 3,8 C 12,4 km/h (2 Bft)
02.04.2010 21:59 7,8 C 54 % 1009,5 hPa 0,0 l/m 11,8 km/h (2 Bft) S 170 0 min 0 W/m -0,9 C 4,1 C 11,8 km/h (2 Bft)
02.04.2010 22:04 7,7 C 54 % 1009,5 hPa 0,0 l/m 8,3 km/h (2 Bft) S-SO 160 0 min 0 W/m -1,0 C 6,2 C 8,3 km/h (2 Bft)
02.04.2010 22:10 7,6 C 55 % 1009,5 hPa 0,0 l/m 8,2 km/h (2 Bft) S 170 0 min 0 W/m -0,9 C 6,2 C 8,2 km/h (2 Bft)
02.04.2010 22:15 7,5 C 56 % 1009,5 hPa 0,0 l/m 12,3 km/h (2 Bft) S 170 0 min 0 W/m -0,7 C 3,5 C 12,3 km/h (2 Bft)
02.04.2010 22:19 7,4 C 56 % 1009,5 hPa 0,0 l/m 9,0 km/h (2 Bft) S 180 0 min 0 W/m -0,8 C 5,4 C 9,0 km/h (2 Bft)
02.04.2010 22:24 7,4 C 56 % 1009,5 hPa 0,0 l/m 14,7 km/h (3 Bft) S 170 0 min 0 W/m -0,8 C 2,1 C 14,7 km/h (3 Bft)
02.04.2010 22:29 7,4 C 56 % 1009,5 hPa 0,0 l/m 12,1 km/h (2 Bft) S 175 0 min 0 W/m -0,8 C 3,5 C 12,1 km/h (2 Bft)
02.04.2010 22:34 7,4 C 56 % 1009,5 hPa 0,0 l/m 13,5 km/h (3 Bft) S 170 0 min 0 W/m -0,8 C 2,7 C 13,5 km/h (3 Bft)
02.04.2010 22:39 7,5 C 56 % 1009,5 hPa 0,0 l/m 15,3 km/h (3 Bft) S 175 0 min 0 W/m -0,7 C 2,0 C 15,3 km/h (3 Bft)
02.04.2010 22:45 7,6 C 55 % 1009,5 hPa 0,0 l/m 15,5 km/h (3 Bft) S 170 0 min 0 W/m -0,9 C 2,0 C 15,5 km/h (3 Bft)
02.04.2010 22:49 7,6 C 55 % 1009,5 hPa 0,0 l/m 17,5 km/h (3 Bft) S 170 0 min 0 W/m -0,9 C 1,1 C 17,5 km/h (3 Bft)
02.04.2010 22:54 7,6 C 55 % 1009,5 hPa 0,0 l/m 13,3 km/h (3 Bft) S 170 0 min 0 W/m -0,9 C 3,1 C 13,3 km/h (3 Bft)
02.04.2010 22:59 7,5 C 55 % 1009,5 hPa 0,0 l/m 12,3 km/h (2 Bft) S 170 0 min 0 W/m -0,9 C 3,5 C 12,3 km/h (2 Bft)
02.04.2010 23:04 7,4 C 55 % 1009,5 hPa 0,0 l/m 14,8 km/h (3 Bft) S 175 0 min 0 W/m -1,0 C 2,1 C 14,8 km/h (3 Bft)
02.04.2010 23:10 7,3 C 55 % 1009,5 hPa 0,0 l/m 15,1 km/h (3 Bft) S 185 0 min 0 W/m -1,1 C 1,8 C 15,1 km/h (3 Bft)
02.04.2010 23:14 7,2 C 56 % 1009,5 hPa 0,0 l/m 14,2 km/h (3 Bft) S 170 0 min 0 W/m -1,0 C 2,1 C 14,2 km/h (3 Bft)
02.04.2010 23:19 7,2 C 56 % 1009,5 hPa 0,0 l/m 16,0 km/h (3 Bft) S 170 0 min 0 W/m -1,0 C 1,3 C 16,0 km/h (3 Bft)
02.04.2010 23:24 7,2 C 56 % 1009,5 hPa 0,0 l/m 11,0 km/h (2 Bft) S 170 0 min 0 W/m -1,0 C 3,9 C 11,0 km/h (2 Bft)
02.04.2010 23:29 7,1 C 56 % 1009,5 hPa 0,0 l/m 20,6 km/h (4 Bft) S 170 0 min 0 W/m -1,1 C -0,7 C 20,6 km/h (4 Bft)
02.04.2010 23:34 7,0 C 56 % 1009,5 hPa 0,0 l/m 18,3 km/h (3 Bft) S-SO 165 0 min 0 W/m -1,2 C 0,1 C 18,3 km/h (3 Bft)
02.04.2010 23:40 6,9 C 57 % 1009,5 hPa 0,0 l/m 15,0 km/h (3 Bft) S 170 0 min 0 W/m -1,0 C 1,4 C 15,0 km/h (3 Bft)
02.04.2010 23:45 6,8 C 57 % 1009,5 hPa 0,0 l/m 14,5 km/h (3 Bft) S 170 0 min 0 W/m -1,1 C 1,5 C 14,5 km/h (3 Bft)
02.04.2010 23:49 6,8 C 57 % 1009,5 hPa 0,0 l/m 13,4 km/h (3 Bft) S 175 0 min 0 W/m -1,1 C 2,1 C 13,4 km/h (3 Bft)
02.04.2010 23:54 6,7 C 57 % 1009,5 hPa 0,0 l/m 16,3 km/h (3 Bft) S 170 0 min 0 W/m -1,2 C 0,5 C 16,3 km/h (3 Bft)
02.04.2010 23:59 6,7 C 57 % 1009,5 hPa 0,0 l/m 13,3 km/h (3 Bft) S 170 0 min 0 W/m -1,2 C 2,0 C 13,3 km/h (3 Bft)
_ Min-Zeit 00:04 16:09 17:04 - 21:10 - - - - 18:39 02:24 21:10
Minimum _ 3,7 C 28 % 1009,5 hPa - 7,2 km/h (2 Bft) - - - - -2,4 C -7,9 C 7,2 km/h (2 Bft)
_ Max-Zeit 17:09 00:00 02:04 05:49 12:44 - - 00:00 00:00 12:09 17:09 12:44
Maximum _ 18,8 C 83 % 1011,5 hPa 0,3 l/m 35,6 km/h
SW (5 Bft)
- - 0 min 0 W/m 3,3 C 15,0 C 35,6 km/h
SW (5 Bft)
Durchschnitt _ 8,8 C 59 % 1010,6 hPa #0,3 l/m 19,9 km/h (4 Bft) SW - #0 min. 0 W/m 0,5 C 2,3 C 19,9 km/h (4 Bft)
copyright by Holger Just